sensor_id;sensor_type;location;lat;lon;timestamp;pressure;altitude;pressure_sealevel;temperature;humidity
71465;BME280;59274;49.874;9.154;2022-07-23T00:00:17;100229.00;;;21.34;73.04
71465;BME280;59274;49.874;9.154;2022-07-23T00:02:45;100228.09;;;21.37;72.74
71465;BME280;59274;49.874;9.154;2022-07-23T00:05:11;100227.63;;;21.39;72.45
71465;BME280;59274;49.874;9.154;2022-07-23T00:07:37;100222.59;;;21.37;72.78
71465;BME280;59274;49.874;9.154;2022-07-23T00:10:03;100214.53;;;21.30;73.29
71465;BME280;59274;49.874;9.154;2022-07-23T00:12:29;100215.84;;;21.26;73.63
71465;BME280;59274;49.874;9.154;2022-07-23T00:14:55;100207.69;;;21.22;73.63
71465;BME280;59274;49.874;9.154;2022-07-23T00:17:21;100207.69;;;21.22;74.47
71465;BME280;59274;49.874;9.154;2022-07-23T00:19:46;100203.03;;;21.19;74.71
71465;BME280;59274;49.874;9.154;2022-07-23T00:22:12;100194.53;;;21.14;74.33
71465;BME280;59274;49.874;9.154;2022-07-23T00:24:38;100194.53;;;21.14;75.73
71465;BME280;59274;49.874;9.154;2022-07-23T00:27:03;100192.91;;;21.16;74.94
71465;BME280;59274;49.874;9.154;2022-07-23T00:29:29;100204.16;;;21.09;75.29
71465;BME280;59274;49.874;9.154;2022-07-23T00:31:55;100206.59;;;21.07;75.52
71465;BME280;59274;49.874;9.154;2022-07-23T00:34:21;100198.75;;;21.05;75.55
71465;BME280;59274;49.874;9.154;2022-07-23T00:36:46;100199.88;;;20.95;75.19
71465;BME280;59274;49.874;9.154;2022-07-23T00:39:12;100207.47;;;20.91;75.16
71465;BME280;59274;49.874;9.154;2022-07-23T00:41:38;100210.59;;;20.93;74.62
71465;BME280;59274;49.874;9.154;2022-07-23T00:44:21;100213.78;;;20.92;74.33
71465;BME280;59274;49.874;9.154;2022-07-23T00:46:49;100209.81;;;20.93;74.24
71465;BME280;59274;49.874;9.154;2022-07-23T00:49:19;100211.91;;;20.89;74.30
71465;BME280;59274;49.874;9.154;2022-07-23T00:51:46;100206.59;;;20.94;74.85
71465;BME280;59274;49.874;9.154;2022-07-23T00:54:11;100198.19;;;20.98;75.42
71465;BME280;59274;49.874;9.154;2022-07-23T00:56:37;100194.00;;;21.06;74.84
71465;BME280;59274;49.874;9.154;2022-07-23T00:59:03;100196.09;;;21.02;75.50
71465;BME280;59274;49.874;9.154;2022-07-23T01:01:30;100176.63;;;21.05;76.48
71465;BME280;59274;49.874;9.154;2022-07-23T01:03:56;100171.13;;;21.05;77.96
71465;BME280;59274;49.874;9.154;2022-07-23T01:06:21;100160.50;;;21.04;78.11
71465;BME280;59274;49.874;9.154;2022-07-23T01:08:47;100168.78;;;21.04;77.40
71465;BME280;59274;49.874;9.154;2022-07-23T01:11:13;100166.16;;;21.00;77.57
71465;BME280;59274;49.874;9.154;2022-07-23T01:13:45;100164.41;;;20.94;78.76
71465;BME280;59274;49.874;9.154;2022-07-23T01:16:10;100168.06;;;20.91;76.61
71465;BME280;59274;49.874;9.154;2022-07-23T01:18:36;100157.22;;;20.96;73.62
71465;BME280;59274;49.874;9.154;2022-07-23T01:21:02;100147.59;;;21.01;73.84
71465;BME280;59274;49.874;9.154;2022-07-23T01:23:28;100161.84;;;20.99;74.18
71465;BME280;59274;49.874;9.154;2022-07-23T01:25:54;100163.66;;;20.81;75.14
71465;BME280;59274;49.874;9.154;2022-07-23T01:28:21;100169.50;;;20.70;75.70
71465;BME280;59274;49.874;9.154;2022-07-23T01:30:47;100182.31;;;20.64;75.38
71465;BME280;59274;49.874;9.154;2022-07-23T01:33:13;100197.91;;;20.58;73.57
71465;BME280;59274;49.874;9.154;2022-07-23T01:35:39;100215.31;;;20.42;73.79
71465;BME280;59274;49.874;9.154;2022-07-23T01:38:05;100213.75;;;20.41;73.04
71465;BME280;59274;49.874;9.154;2022-07-23T01:40:31;100224.72;;;20.45;72.20
71465;BME280;59274;49.874;9.154;2022-07-23T01:42:56;100217.22;;;20.45;71.83
71465;BME280;59274;49.874;9.154;2022-07-23T01:45:22;100225.78;;;20.47;71.03
71465;BME280;59274;49.874;9.154;2022-07-23T01:47:48;100241.13;;;20.36;71.45
71465;BME280;59274;49.874;9.154;2022-07-23T01:50:14;100241.13;;;20.36;71.74
71465;BME280;59274;49.874;9.154;2022-07-23T01:52:39;100232.91;;;20.32;70.96
71465;BME280;59274;49.874;9.154;2022-07-23T01:55:06;100218.38;;;20.31;70.68
71465;BME280;59274;49.874;9.154;2022-07-23T01:57:32;100225.09;;;20.30;70.59
71465;BME280;59274;49.874;9.154;2022-07-23T01:59:58;100224.31;;;20.30;70.90
71465;BME280;59274;49.874;9.154;2022-07-23T02:02:24;100238.44;;;20.32;70.68
71465;BME280;59274;49.874;9.154;2022-07-23T02:04:50;100236.56;;;20.29;70.95
71465;BME280;59274;49.874;9.154;2022-07-23T02:07:15;100225.53;;;20.29;70.48
71465;BME280;59274;49.874;9.154;2022-07-23T02:09:41;100225.19;;;20.27;71.25
71465;BME280;59274;49.874;9.154;2022-07-23T02:12:07;100217.81;;;20.24;70.50
71465;BME280;59274;49.874;9.154;2022-07-23T02:14:32;100221.88;;;20.19;70.55
71465;BME280;59274;49.874;9.154;2022-07-23T02:16:58;100220.78;;;20.17;70.81
71465;BME280;59274;49.874;9.154;2022-07-23T02:19:24;100219.09;;;20.19;70.88
71465;BME280;59274;49.874;9.154;2022-07-23T02:21:49;100223.41;;;20.20;71.15
71465;BME280;59274;49.874;9.154;2022-07-23T02:24:15;100220.44;;;20.15;70.79
71465;BME280;59274;49.874;9.154;2022-07-23T02:26:41;100210.94;;;20.16;70.71
71465;BME280;59274;49.874;9.154;2022-07-23T02:29:06;100224.94;;;20.09;71.22
71465;BME280;59274;49.874;9.154;2022-07-23T02:31:33;100219.28;;;20.00;71.17
71465;BME280;59274;49.874;9.154;2022-07-23T02:33:59;100217.16;;;19.91;71.55
71465;BME280;59274;49.874;9.154;2022-07-23T02:36:25;100214.75;;;19.93;71.85
71465;BME280;59274;49.874;9.154;2022-07-23T02:38:50;100224.31;;;19.88;71.90
71465;BME280;59274;49.874;9.154;2022-07-23T02:41:16;100233.09;;;19.83;71.68
71465;BME280;59274;49.874;9.154;2022-07-23T02:43:42;100236.31;;;19.82;72.08
71465;BME280;59274;49.874;9.154;2022-07-23T02:46:08;100237.56;;;19.65;72.46
71465;BME280;59274;49.874;9.154;2022-07-23T02:48:34;100240.41;;;19.61;72.47
71465;BME280;59274;49.874;9.154;2022-07-23T02:50:59;100241.94;;;19.62;72.51
71465;BME280;59274;49.874;9.154;2022-07-23T02:53:25;100236.00;;;19.64;72.27
71465;BME280;59274;49.874;9.154;2022-07-23T02:55:51;100228.94;;;19.63;72.59
71465;BME280;59274;49.874;9.154;2022-07-23T02:58:17;100222.66;;;19.62;72.71
71465;BME280;59274;49.874;9.154;2022-07-23T03:00:43;100236.69;;;19.68;72.35
71465;BME280;59274;49.874;9.154;2022-07-23T03:03:08;100259.84;;;19.70;72.28
71465;BME280;59274;49.874;9.154;2022-07-23T03:05:34;100252.34;;;19.71;72.35
71465;BME280;59274;49.874;9.154;2022-07-23T03:08:00;100257.81;;;19.58;73.08
71465;BME280;59274;49.874;9.154;2022-07-23T03:10:26;100262.97;;;19.56;73.15
71465;BME280;59274;49.874;9.154;2022-07-23T03:12:52;100283.22;;;19.49;73.44
71465;BME280;59274;49.874;9.154;2022-07-23T03:15:18;100286.03;;;19.46;73.66
71465;BME280;59274;49.874;9.154;2022-07-23T03:17:43;100276.72;;;19.40;73.40
71465;BME280;59274;49.874;9.154;2022-07-23T03:20:09;100272.00;;;19.40;73.58
71465;BME280;59274;49.874;9.154;2022-07-23T03:22:35;100266.81;;;19.26;74.41
71465;BME280;59274;49.874;9.154;2022-07-23T03:25:01;100265.63;;;19.27;75.88
71465;BME280;59274;49.874;9.154;2022-07-23T03:27:28;100261.66;;;19.28;75.62
71465;BME280;59274;49.874;9.154;2022-07-23T03:29:56;100246.19;;;19.18;76.78
71465;BME280;59274;49.874;9.154;2022-07-23T03:32:22;100244.38;;;19.11;78.39
71465;BME280;59274;49.874;9.154;2022-07-23T03:34:48;100249.19;;;19.07;77.63
71465;BME280;59274;49.874;9.154;2022-07-23T03:37:15;100249.00;;;18.98;77.80
71465;BME280;59274;49.874;9.154;2022-07-23T03:39:41;100267.75;;;18.87;78.82
71465;BME280;59274;49.874;9.154;2022-07-23T03:42:06;100274.88;;;18.85;78.95
71465;BME280;59274;49.874;9.154;2022-07-23T03:44:34;100278.22;;;18.76;79.57
71465;BME280;59274;49.874;9.154;2022-07-23T03:46:59;100275.81;;;18.78;79.79
71465;BME280;59274;49.874;9.154;2022-07-23T03:49:25;100270.94;;;18.86;80.65
71465;BME280;59274;49.874;9.154;2022-07-23T03:51:51;100282.03;;;18.82;80.12
71465;BME280;59274;49.874;9.154;2022-07-23T03:54:16;100297.16;;;18.74;80.06
71465;BME280;59274;49.874;9.154;2022-07-23T03:56:42;100313.97;;;18.76;79.89
71465;BME280;59274;49.874;9.154;2022-07-23T03:59:09;100315.34;;;18.68;80.07
71465;BME280;59274;49.874;9.154;2022-07-23T04:01:34;100312.75;;;18.61;80.23
71465;BME280;59274;49.874;9.154;2022-07-23T04:04:00;100300.72;;;18.51;80.88
71465;BME280;59274;49.874;9.154;2022-07-23T04:06:26;100308.97;;;18.51;81.14
71465;BME280;59274;49.874;9.154;2022-07-23T04:08:52;100315.25;;;18.52;81.06
71465;BME280;59274;49.874;9.154;2022-07-23T04:11:18;100322.78;;;18.48;81.65
71465;BME280;59274;49.874;9.154;2022-07-23T04:13:43;100325.22;;;18.46;81.57
71465;BME280;59274;49.874;9.154;2022-07-23T04:16:09;100330.63;;;18.49;81.69
71465;BME280;59274;49.874;9.154;2022-07-23T04:18:35;100326.69;;;18.50;81.58
71465;BME280;59274;49.874;9.154;2022-07-23T04:21:00;100327.00;;;18.56;81.42
71465;BME280;59274;49.874;9.154;2022-07-23T04:23:26;100339.91;;;18.59;81.04
71465;BME280;59274;49.874;9.154;2022-07-23T04:25:52;100336.28;;;18.62;81.12
71465;BME280;59274;49.874;9.154;2022-07-23T04:28:18;100329.13;;;18.68;81.16
71465;BME280;59274;49.874;9.154;2022-07-23T04:30:43;100322.06;;;18.67;80.88
71465;BME280;59274;49.874;9.154;2022-07-23T04:33:09;100319.31;;;18.67;80.98
71465;BME280;59274;49.874;9.154;2022-07-23T04:35:35;100315.50;;;18.61;81.52
71465;BME280;59274;49.874;9.154;2022-07-23T04:38:02;100320.28;;;18.57;81.54
71465;BME280;59274;49.874;9.154;2022-07-23T04:40:28;100322.06;;;18.47;82.55
71465;BME280;59274;49.874;9.154;2022-07-23T04:42:55;100306.28;;;18.48;83.64
71465;BME280;59274;49.874;9.154;2022-07-23T04:45:21;100295.16;;;18.55;83.82
71465;BME280;59274;49.874;9.154;2022-07-23T04:47:49;100303.78;;;18.57;83.70
71465;BME280;59274;49.874;9.154;2022-07-23T04:50:14;100315.63;;;18.54;84.64
71465;BME280;59274;49.874;9.154;2022-07-23T04:52:44;100330.00;;;18.42;84.99
71465;BME280;59274;49.874;9.154;2022-07-23T04:55:10;100325.69;;;18.21;85.42
71465;BME280;59274;49.874;9.154;2022-07-23T04:57:35;100337.69;;;18.30;84.84
71465;BME280;59274;49.874;9.154;2022-07-23T05:00:03;100336.78;;;18.37;85.19
71465;BME280;59274;49.874;9.154;2022-07-23T05:02:28;100351.31;;;18.37;84.93
71465;BME280;59274;49.874;9.154;2022-07-23T05:04:54;100353.28;;;18.37;84.83
71465;BME280;59274;49.874;9.154;2022-07-23T05:07:19;100352.78;;;18.42;84.29
71465;BME280;59274;49.874;9.154;2022-07-23T05:09:45;100362.28;;;18.61;83.87
71465;BME280;59274;49.874;9.154;2022-07-23T05:12:11;100365.63;;;18.49;83.74
71465;BME280;59274;49.874;9.154;2022-07-23T05:14:36;100370.41;;;18.45;83.33
71465;BME280;59274;49.874;9.154;2022-07-23T05:17:02;100390.38;;;18.49;83.60
71465;BME280;59274;49.874;9.154;2022-07-23T05:19:28;100403.44;;;18.45;83.61
71465;BME280;59274;49.874;9.154;2022-07-23T05:21:53;100406.47;;;18.50;83.36
71465;BME280;59274;49.874;9.154;2022-07-23T05:24:19;100407.19;;;18.54;83.71
71465;BME280;59274;49.874;9.154;2022-07-23T05:26:45;100411.47;;;18.55;83.24
71465;BME280;59274;49.874;9.154;2022-07-23T05:29:10;100407.22;;;18.51;83.37
71465;BME280;59274;49.874;9.154;2022-07-23T05:31:36;100415.13;;;18.49;83.45
71465;BME280;59274;49.874;9.154;2022-07-23T05:34:01;100415.25;;;18.42;84.86
71465;BME280;59274;49.874;9.154;2022-07-23T05:36:27;100414.59;;;18.34;85.04
71465;BME280;59274;49.874;9.154;2022-07-23T05:38:53;100407.63;;;18.29;84.95
71465;BME280;59274;49.874;9.154;2022-07-23T05:41:18;100410.66;;;18.35;85.44
71465;BME280;59274;49.874;9.154;2022-07-23T05:43:44;100418.00;;;18.42;85.51
71465;BME280;59274;49.874;9.154;2022-07-23T05:46:09;100426.56;;;18.47;85.12
71465;BME280;59274;49.874;9.154;2022-07-23T05:48:35;100434.38;;;18.49;84.51
71465;BME280;59274;49.874;9.154;2022-07-23T05:51:01;100421.34;;;18.53;85.02
71465;BME280;59274;49.874;9.154;2022-07-23T05:53:28;100421.34;;;18.53;83.99
71465;BME280;59274;49.874;9.154;2022-07-23T05:55:54;100422.13;;;18.53;83.41
71465;BME280;59274;49.874;9.154;2022-07-23T05:58:20;100419.06;;;18.48;83.21
71465;BME280;59274;49.874;9.154;2022-07-23T06:00:45;100416.75;;;18.46;83.61
71465;BME280;59274;49.874;9.154;2022-07-23T06:03:11;100426.25;;;18.42;84.08
71465;BME280;59274;49.874;9.154;2022-07-23T06:05:36;100437.84;;;18.53;83.85
71465;BME280;59274;49.874;9.154;2022-07-23T06:08:02;100447.81;;;18.47;83.42
71465;BME280;59274;49.874;9.154;2022-07-23T06:10:28;100457.34;;;18.62;83.41
71465;BME280;59274;49.874;9.154;2022-07-23T06:12:54;100464.63;;;18.72;83.26
71465;BME280;59274;49.874;9.154;2022-07-23T06:15:19;100454.69;;;18.78;83.57
71465;BME280;59274;49.874;9.154;2022-07-23T06:17:45;100461.84;;;18.95;83.25
71465;BME280;59274;49.874;9.154;2022-07-23T06:20:10;100450.81;;;18.95;81.58
71465;BME280;59274;49.874;9.154;2022-07-23T06:22:37;100440.22;;;18.94;81.23
71465;BME280;59274;49.874;9.154;2022-07-23T06:25:03;100438.38;;;19.07;81.41
71465;BME280;59274;49.874;9.154;2022-07-23T06:27:29;100441.50;;;18.89;79.74
71465;BME280;59274;49.874;9.154;2022-07-23T06:29:54;100436.78;;;18.90;80.70
71465;BME280;59274;49.874;9.154;2022-07-23T06:32:21;100440.16;;;18.97;80.29
71465;BME280;59274;49.874;9.154;2022-07-23T06:34:46;100442.44;;;19.02;80.91
71465;BME280;59274;49.874;9.154;2022-07-23T06:37:12;100434.72;;;19.13;79.53
71465;BME280;59274;49.874;9.154;2022-07-23T06:39:37;100423.44;;;19.08;80.06
71465;BME280;59274;49.874;9.154;2022-07-23T06:42:03;100421.09;;;19.06;79.08
71465;BME280;59274;49.874;9.154;2022-07-23T06:44:29;100431.25;;;19.09;79.85
71465;BME280;59274;49.874;9.154;2022-07-23T06:46:54;100412.88;;;19.23;78.63
71465;BME280;59274;49.874;9.154;2022-07-23T06:49:20;100412.00;;;19.26;78.18
71465;BME280;59274;49.874;9.154;2022-07-23T06:51:46;100409.97;;;19.30;77.53
71465;BME280;59274;49.874;9.154;2022-07-23T06:54:11;100420.00;;;19.20;77.92
71465;BME280;59274;49.874;9.154;2022-07-23T06:56:38;100429.41;;;19.23;78.57
71465;BME280;59274;49.874;9.154;2022-07-23T06:59:05;100436.13;;;19.22;79.35
71465;BME280;59274;49.874;9.154;2022-07-23T07:01:31;100443.97;;;19.23;78.34
71465;BME280;59274;49.874;9.154;2022-07-23T07:03:57;100445.06;;;19.26;79.19
71465;BME280;59274;49.874;9.154;2022-07-23T07:06:22;100444.06;;;19.36;78.14
71465;BME280;59274;49.874;9.154;2022-07-23T07:08:48;100450.44;;;19.52;77.78
71465;BME280;59274;49.874;9.154;2022-07-23T07:11:13;100446.53;;;19.50;76.73
71465;BME280;59274;49.874;9.154;2022-07-23T07:13:39;100446.97;;;19.48;77.15
71465;BME280;59274;49.874;9.154;2022-07-23T07:16:05;100459.97;;;19.48;78.28
71465;BME280;59274;49.874;9.154;2022-07-23T07:18:34;100466.88;;;19.56;76.93
71465;BME280;59274;49.874;9.154;2022-07-23T07:20:59;100479.69;;;19.46;76.15
71465;BME280;59274;49.874;9.154;2022-07-23T07:23:25;100474.19;;;19.46;76.30
71465;BME280;59274;49.874;9.154;2022-07-23T07:25:50;100478.16;;;19.42;77.18
71465;BME280;59274;49.874;9.154;2022-07-23T07:28:16;100488.00;;;19.43;76.44
71465;BME280;59274;49.874;9.154;2022-07-23T07:30:42;100485.91;;;19.50;76.30
71465;BME280;59274;49.874;9.154;2022-07-23T07:33:07;100487.16;;;19.82;75.09
71465;BME280;59274;49.874;9.154;2022-07-23T07:35:33;100479.50;;;20.22;75.09
71465;BME280;59274;49.874;9.154;2022-07-23T07:37:59;100483.38;;;20.57;73.42
71465;BME280;59274;49.874;9.154;2022-07-23T07:40:26;100487.94;;;20.63;71.89
71465;BME280;59274;49.874;9.154;2022-07-23T07:42:53;100493.75;;;20.53;72.55
71465;BME280;59274;49.874;9.154;2022-07-23T07:45:22;100502.00;;;20.53;72.66
71465;BME280;59274;49.874;9.154;2022-07-23T07:47:48;100502.56;;;20.60;72.81
71465;BME280;59274;49.874;9.154;2022-07-23T07:50:14;100511.03;;;20.69;72.38
71465;BME280;59274;49.874;9.154;2022-07-23T07:52:40;100508.81;;;20.64;72.30
71465;BME280;59274;49.874;9.154;2022-07-23T07:55:07;100519.66;;;20.71;72.51
71465;BME280;59274;49.874;9.154;2022-07-23T07:57:34;100517.28;;;20.86;72.57
71465;BME280;59274;49.874;9.154;2022-07-23T07:59:59;100531.03;;;21.19;71.50
71465;BME280;59274;49.874;9.154;2022-07-23T08:02:25;100513.75;;;21.56;70.24
71465;BME280;59274;49.874;9.154;2022-07-23T08:04:50;100515.09;;;21.77;70.13
71465;BME280;59274;49.874;9.154;2022-07-23T08:07:16;100517.88;;;21.77;68.61
71465;BME280;59274;49.874;9.154;2022-07-23T08:09:41;100520.28;;;21.49;69.08
71465;BME280;59274;49.874;9.154;2022-07-23T08:12:07;100526.00;;;21.14;70.43
71465;BME280;59274;49.874;9.154;2022-07-23T08:14:33;100538.69;;;21.27;70.86
71465;BME280;59274;49.874;9.154;2022-07-23T08:16:59;100527.03;;;21.61;69.75
71465;BME280;59274;49.874;9.154;2022-07-23T08:19:24;100525.38;;;21.89;68.87
71465;BME280;59274;49.874;9.154;2022-07-23T08:21:50;100524.94;;;21.91;70.05
71465;BME280;59274;49.874;9.154;2022-07-23T08:24:15;100533.16;;;22.07;68.99
71465;BME280;59274;49.874;9.154;2022-07-23T08:26:45;100531.06;;;22.11;66.81
71465;BME280;59274;49.874;9.154;2022-07-23T08:29:13;100538.00;;;22.41;67.59
71465;BME280;59274;49.874;9.154;2022-07-23T08:31:38;100538.19;;;22.59;65.80
71465;BME280;59274;49.874;9.154;2022-07-23T08:34:05;100539.66;;;22.51;66.00
71465;BME280;59274;49.874;9.154;2022-07-23T08:36:31;100538.09;;;22.50;66.77
71465;BME280;59274;49.874;9.154;2022-07-23T08:38:58;100551.69;;;22.57;67.20
71465;BME280;59274;49.874;9.154;2022-07-23T08:41:24;100564.81;;;22.44;65.44
71465;BME280;59274;49.874;9.154;2022-07-23T08:43:51;100563.44;;;22.48;66.91
71465;BME280;59274;49.874;9.154;2022-07-23T08:46:19;100566.72;;;22.69;65.13
71465;BME280;59274;49.874;9.154;2022-07-23T08:48:47;100571.63;;;22.64;65.39
71465;BME280;59274;49.874;9.154;2022-07-23T08:51:13;100571.56;;;22.90;66.00
71465;BME280;59274;49.874;9.154;2022-07-23T08:53:39;100564.13;;;22.99;65.81
71465;BME280;59274;49.874;9.154;2022-07-23T08:56:07;100567.63;;;22.78;64.70
71465;BME280;59274;49.874;9.154;2022-07-23T08:58:33;100561.00;;;22.63;66.13
71465;BME280;59274;49.874;9.154;2022-07-23T09:01:00;100560.25;;;22.50;66.49
71465;BME280;59274;49.874;9.154;2022-07-23T09:03:28;100552.03;;;22.59;67.48
71465;BME280;59274;49.874;9.154;2022-07-23T09:05:55;100553.47;;;22.63;66.38
71465;BME280;59274;49.874;9.154;2022-07-23T09:08:24;100558.38;;;22.34;65.54
71465;BME280;59274;49.874;9.154;2022-07-23T09:10:53;100547.31;;;22.21;66.91
71465;BME280;59274;49.874;9.154;2022-07-23T09:13:26;100539.78;;;22.35;66.39
71465;BME280;59274;49.874;9.154;2022-07-23T09:15:54;100541.72;;;22.59;66.71
71465;BME280;59274;49.874;9.154;2022-07-23T09:18:28;100545.59;;;22.62;66.58
71465;BME280;59274;49.874;9.154;2022-07-23T09:21:12;100538.25;;;22.81;65.72
71465;BME280;59274;49.874;9.154;2022-07-23T09:23:44;100536.72;;;22.80;65.77
71465;BME280;59274;49.874;9.154;2022-07-23T09:26:40;100536.47;;;22.87;65.62
71465;BME280;59274;49.874;9.154;2022-07-23T09:29:25;100541.81;;;22.69;64.69
71465;BME280;59274;49.874;9.154;2022-07-23T09:34:29;100533.16;;;22.66;64.91
71465;BME280;59274;49.874;9.154;2022-07-23T09:36:58;100524.47;;;22.90;65.31
71465;BME280;59274;49.874;9.154;2022-07-23T09:39:32;100527.31;;;22.99;66.24
71465;BME280;59274;49.874;9.154;2022-07-23T09:42:12;100531.78;;;23.18;65.20
71465;BME280;59274;49.874;9.154;2022-07-23T09:44:41;100537.19;;;23.43;64.77
71465;BME280;59274;49.874;9.154;2022-07-23T09:47:07;100537.50;;;23.46;63.56
71465;BME280;59274;49.874;9.154;2022-07-23T09:49:33;100534.22;;;23.60;63.21
71465;BME280;59274;49.874;9.154;2022-07-23T09:51:59;100524.44;;;23.77;62.90
71465;BME280;59274;49.874;9.154;2022-07-23T09:54:28;100534.81;;;23.86;61.54
71465;BME280;59274;49.874;9.154;2022-07-23T09:56:59;100533.97;;;24.07;61.86
71465;BME280;59274;49.874;9.154;2022-07-23T09:59:31;100532.81;;;24.26;59.76
71465;BME280;59274;49.874;9.154;2022-07-23T10:02:03;100530.06;;;24.35;60.71
71465;BME280;59274;49.874;9.154;2022-07-23T10:04:30;100528.53;;;24.34;58.49
71465;BME280;59274;49.874;9.154;2022-07-23T10:06:59;100530.06;;;24.35;58.96
71465;BME280;59274;49.874;9.154;2022-07-23T10:09:33;100528.66;;;24.31;58.73
71465;BME280;59274;49.874;9.154;2022-07-23T10:12:02;100533.69;;;24.14;59.06
71465;BME280;59274;49.874;9.154;2022-07-23T10:14:34;100535.75;;;24.23;59.67
71465;BME280;59274;49.874;9.154;2022-07-23T10:17:02;100536.97;;;24.22;58.02
71465;BME280;59274;49.874;9.154;2022-07-23T10:19:30;100527.13;;;24.39;59.63
71465;BME280;59274;49.874;9.154;2022-07-23T10:22:00;100528.25;;;24.59;57.53
71465;BME280;59274;49.874;9.154;2022-07-23T10:27:43;100527.34;;;24.81;55.73
71465;BME280;59274;49.874;9.154;2022-07-23T10:30:44;100521.78;;;24.81;55.38
71465;BME280;59274;49.874;9.154;2022-07-23T10:36:09;100522.09;;;25.10;54.47
71465;BME280;59274;49.874;9.154;2022-07-23T10:38:51;100520.53;;;24.82;55.07
71465;BME280;59274;49.874;9.154;2022-07-23T10:41:34;100523.97;;;24.95;54.94
71465;BME280;59274;49.874;9.154;2022-07-23T10:44:13;100519.47;;;25.25;52.99
71465;BME280;59274;49.874;9.154;2022-07-23T10:46:55;100523.28;;;25.36;52.60
71465;BME280;59274;49.874;9.154;2022-07-23T10:49:39;100524.44;;;25.12;54.53
71465;BME280;59274;49.874;9.154;2022-07-23T10:54:53;100517.03;;;25.78;55.37
71465;BME280;59274;49.874;9.154;2022-07-23T10:57:23;100514.13;;;26.05;52.18
71465;BME280;59274;49.874;9.154;2022-07-23T11:00:11;100516.06;;;25.81;52.93
71465;BME280;59274;49.874;9.154;2022-07-23T11:02:47;100522.50;;;25.96;53.56
71465;BME280;59274;49.874;9.154;2022-07-23T11:05:20;100516.97;;;26.20;51.36
71465;BME280;59274;49.874;9.154;2022-07-23T11:10:45;100510.13;;;26.54;49.73
71465;BME280;59274;49.874;9.154;2022-07-23T11:36:58;100507.09;;;26.19;50.43
71465;BME280;59274;49.874;9.154;2022-07-23T11:39:26;100501.03;;;26.21;46.08
71465;BME280;59274;49.874;9.154;2022-07-23T11:41:52;100507.38;;;25.88;47.34
71465;BME280;59274;49.874;9.154;2022-07-23T11:47:02;100502.38;;;25.68;47.39
71465;BME280;59274;49.874;9.154;2022-07-23T11:49:28;100498.59;;;25.81;46.10
71465;BME280;59274;49.874;9.154;2022-07-23T11:54:31;100495.72;;;26.56;45.38
71465;BME280;59274;49.874;9.154;2022-07-23T11:56:59;100492.50;;;27.40;43.35
71465;BME280;59274;49.874;9.154;2022-07-23T11:59:27;100490.69;;;27.86;42.45
71465;BME280;59274;49.874;9.154;2022-07-23T12:01:58;100490.66;;;27.37;42.71
71465;BME280;59274;49.874;9.154;2022-07-23T12:04:45;100483.94;;;27.93;42.45
71465;BME280;59274;49.874;9.154;2022-07-23T12:07:34;100484.31;;;27.36;42.84
71465;BME280;59274;49.874;9.154;2022-07-23T12:12:38;100491.34;;;27.17;43.08
71465;BME280;59274;49.874;9.154;2022-07-23T12:15:04;100486.22;;;28.09;42.11
71465;BME280;59274;49.874;9.154;2022-07-23T12:17:34;100483.06;;;28.77;38.94
71465;BME280;59274;49.874;9.154;2022-07-23T12:20:00;100478.88;;;28.93;38.60
71465;BME280;59274;49.874;9.154;2022-07-23T12:22:47;100470.78;;;29.52;39.32
71465;BME280;59274;49.874;9.154;2022-07-23T12:25:19;100468.44;;;29.82;36.46
71465;BME280;59274;49.874;9.154;2022-07-23T12:27:46;100469.88;;;29.09;37.92
71465;BME280;59274;49.874;9.154;2022-07-23T12:30:24;100464.13;;;28.26;39.07
71465;BME280;59274;49.874;9.154;2022-07-23T12:32:52;100473.06;;;27.95;39.71
71465;BME280;59274;49.874;9.154;2022-07-23T12:35:19;100473.81;;;28.30;38.88
71465;BME280;59274;49.874;9.154;2022-07-23T12:37:47;100466.28;;;29.03;36.91
71465;BME280;59274;49.874;9.154;2022-07-23T12:45:48;100464.59;;;29.79;36.40
71465;BME280;59274;49.874;9.154;2022-07-23T12:48:20;100467.09;;;28.83;37.91
71465;BME280;59274;49.874;9.154;2022-07-23T12:50:52;100469.22;;;28.48;38.44
71465;BME280;59274;49.874;9.154;2022-07-23T12:55:46;100473.59;;;28.74;36.68
71465;BME280;59274;49.874;9.154;2022-07-23T12:58:18;100461.06;;;28.90;35.67
71465;BME280;59274;49.874;9.154;2022-07-23T13:05:48;100465.13;;;31.02;32.14
71465;BME280;59274;49.874;9.154;2022-07-23T13:08:13;100466.41;;;30.90;32.08
71465;BME280;59274;49.874;9.154;2022-07-23T13:10:39;100473.50;;;30.68;32.50
71465;BME280;59274;49.874;9.154;2022-07-23T13:13:09;100465.69;;;31.34;32.90
71465;BME280;59274;49.874;9.154;2022-07-23T13:15:35;100463.13;;;31.41;31.76
71465;BME280;59274;49.874;9.154;2022-07-23T13:18:00;100461.34;;;31.72;31.58
71465;BME280;59274;49.874;9.154;2022-07-23T13:20:26;100454.34;;;32.17;31.23
71465;BME280;59274;49.874;9.154;2022-07-23T13:22:51;100460.78;;;31.96;30.79
71465;BME280;59274;49.874;9.154;2022-07-23T13:25:17;100462.44;;;32.38;29.90
71465;BME280;59274;49.874;9.154;2022-07-23T13:27:42;100453.81;;;32.24;30.26
71465;BME280;59274;49.874;9.154;2022-07-23T13:30:08;100451.09;;;31.85;31.09
71465;BME280;59274;49.874;9.154;2022-07-23T13:32:36;100455.38;;;32.09;30.09
71465;BME280;59274;49.874;9.154;2022-07-23T13:35:02;100456.97;;;32.56;28.69
71465;BME280;59274;49.874;9.154;2022-07-23T13:37:28;100462.34;;;33.01;28.98
71465;BME280;59274;49.874;9.154;2022-07-23T13:39:53;100458.16;;;32.78;28.64
71465;BME280;59274;49.874;9.154;2022-07-23T13:42:19;100456.94;;;32.68;28.65
71465;BME280;59274;49.874;9.154;2022-07-23T13:44:44;100468.66;;;30.74;31.37
71465;BME280;59274;49.874;9.154;2022-07-23T13:47:10;100461.06;;;31.86;31.10
71465;BME280;59274;49.874;9.154;2022-07-23T13:49:35;100460.06;;;32.53;28.87